Otwell, Indiana
Current Conditions -  °F | °C
As of 8:15 AM on Saturday 22 Nov 2014 (Local Time) from KHNB Reporting Station
Scattered Clouds Scattered Clouds  
Wind Chill: 42°   Ceiling: Unl
Heat Index: 48°   Visibility: 10mi
Dew Point: 39°   Wind: 17mph
Humidity: 71%   Direction: 190°S
Pressure: 30.24"   Gusts: 23mph
Location:  38.45°N, 87.09°W
Report Text: KHNB 221415Z AUTO 19015G20KT 10SM SCT080 09/04 A3024 RMK AO1
Loading
Personal Weather Stations






























Interactive Weather Map New forecast layout! Learn more

10-Day Weather Forecast

Advertisements
Track Severe Weather on mobile